sensor_id;sensor_type;location;lat;lon;timestamp;pressure;altitude;pressure_sealevel;temperature;humidity
35888;BME280;21990;42.540;23.496;2023-02-28T00:00:08;93934.50;;;6.73;100.00
35888;BME280;21990;42.540;23.496;2023-02-28T00:02:42;93940.41;;;6.80;100.00
35888;BME280;21990;42.540;23.496;2023-02-28T00:05:10;93940.94;;;6.84;100.00
35888;BME280;21990;42.540;23.496;2023-02-28T00:07:36;93940.09;;;6.73;100.00
35888;BME280;21990;42.540;23.496;2023-02-28T00:10:03;93955.66;;;6.79;100.00
35888;BME280;21990;42.540;23.496;2023-02-28T00:12:29;93956.19;;;6.83;100.00
35888;BME280;21990;42.540;23.496;2023-02-28T00:14:55;93948.81;;;6.86;100.00
35888;BME280;21990;42.540;23.496;2023-02-28T00:17:20;93932.78;;;6.86;100.00
35888;BME280;21990;42.540;23.496;2023-02-28T00:19:49;93930.16;;;6.77;100.00
35888;BME280;21990;42.540;23.496;2023-02-28T00:22:19;93930.25;;;6.51;100.00
35888;BME280;21990;42.540;23.496;2023-02-28T00:24:45;93933.16;;;6.31;100.00
35888;BME280;21990;42.540;23.496;2023-02-28T00:27:11;93933.53;;;6.50;100.00
35888;BME280;21990;42.540;23.496;2023-02-28T00:29:37;93934.91;;;6.60;100.00
35888;BME280;21990;42.540;23.496;2023-02-28T00:32:03;93944.38;;;6.68;100.00
35888;BME280;21990;42.540;23.496;2023-02-28T00:34:29;93944.69;;;6.76;100.00
35888;BME280;21990;42.540;23.496;2023-02-28T00:36:54;93933.22;;;6.74;100.00
35888;BME280;21990;42.540;23.496;2023-02-28T00:39:21;93942.91;;;6.78;100.00
35888;BME280;21990;42.540;23.496;2023-02-28T00:41:46;93933.25;;;6.79;100.00
35888;BME280;21990;42.540;23.496;2023-02-28T00:44:12;93928.19;;;6.83;100.00
35888;BME280;21990;42.540;23.496;2023-02-28T00:46:37;93916.75;;;6.87;99.96
35888;BME280;21990;42.540;23.496;2023-02-28T00:49:03;93915.44;;;6.82;99.24
35888;BME280;21990;42.540;23.496;2023-02-28T00:51:28;93918.25;;;6.82;98.74
35888;BME280;21990;42.540;23.496;2023-02-28T00:53:54;93911.84;;;6.76;98.46
35888;BME280;21990;42.540;23.496;2023-02-28T00:56:20;93911.03;;;6.70;98.59
35888;BME280;21990;42.540;23.496;2023-02-28T00:58:45;93915.69;;;6.79;98.52
35888;BME280;21990;42.540;23.496;2023-02-28T01:01:11;93921.53;;;6.75;98.23
35888;BME280;21990;42.540;23.496;2023-02-28T01:03:36;93920.50;;;6.78;98.42
35888;BME280;21990;42.540;23.496;2023-02-28T01:06:02;93927.16;;;6.81;98.05
35888;BME280;21990;42.540;23.496;2023-02-28T01:08:27;93914.78;;;6.56;98.52
35888;BME280;21990;42.540;23.496;2023-02-28T01:10:53;93918.88;;;6.60;98.83
35888;BME280;21990;42.540;23.496;2023-02-28T01:13:19;93919.13;;;6.62;99.05
35888;BME280;21990;42.540;23.496;2023-02-28T01:15:55;93914.13;;;6.78;98.91
35888;BME280;21990;42.540;23.496;2023-02-28T01:18:21;93901.25;;;6.54;98.71
35888;BME280;21990;42.540;23.496;2023-02-28T01:20:48;93913.28;;;6.60;99.55
35888;BME280;21990;42.540;23.496;2023-02-28T01:23:14;93914.31;;;6.63;99.60
35888;BME280;21990;42.540;23.496;2023-02-28T01:25:40;93912.03;;;6.67;99.65
35888;BME280;21990;42.540;23.496;2023-02-28T01:28:06;93915.63;;;6.73;99.15
35888;BME280;21990;42.540;23.496;2023-02-28T01:30:32;93915.91;;;6.75;98.89
35888;BME280;21990;42.540;23.496;2023-02-28T01:32:58;93911.09;;;6.76;98.23
35888;BME280;21990;42.540;23.496;2023-02-28T01:35:24;93902.41;;;6.74;96.80
35888;BME280;21990;42.540;23.496;2023-02-28T01:37:49;93902.69;;;6.76;96.47
35888;BME280;21990;42.540;23.496;2023-02-28T01:40:15;93909.28;;;6.73;95.93
35888;BME280;21990;42.540;23.496;2023-02-28T01:42:40;93907.75;;;6.72;96.25
35888;BME280;21990;42.540;23.496;2023-02-28T01:45:27;93909.47;;;6.63;96.73
35888;BME280;21990;42.540;23.496;2023-02-28T01:48:04;93911.25;;;6.61;97.30
35888;BME280;21990;42.540;23.496;2023-02-28T01:50:36;93902.31;;;6.57;97.37
35888;BME280;21990;42.540;23.496;2023-02-28T01:53:07;93911.19;;;6.55;96.81
35888;BME280;21990;42.540;23.496;2023-02-28T01:55:36;93916.75;;;6.50;96.61
35888;BME280;21990;42.540;23.496;2023-02-28T01:58:04;93917.81;;;6.58;96.89
35888;BME280;21990;42.540;23.496;2023-02-28T02:00:32;93919.06;;;6.51;96.86
35888;BME280;21990;42.540;23.496;2023-02-28T02:03:07;93927.44;;;6.14;98.10
35888;BME280;21990;42.540;23.496;2023-02-28T02:05:36;93924.97;;;5.96;100.00
35888;BME280;21990;42.540;23.496;2023-02-28T02:08:05;93926.66;;;6.14;100.00
35888;BME280;21990;42.540;23.496;2023-02-28T02:18:57;93924.75;;;6.00;100.00
35888;BME280;21990;42.540;23.496;2023-02-28T02:29:43;93930.00;;;6.18;100.00
35888;BME280;21990;42.540;23.496;2023-02-28T02:34:56;93932.59;;;6.27;100.00
35888;BME280;21990;42.540;23.496;2023-02-28T02:37:51;93939.53;;;6.32;100.00
35888;BME280;21990;42.540;23.496;2023-02-28T02:40:28;93929.63;;;6.36;100.00
35888;BME280;21990;42.540;23.496;2023-02-28T02:43:03;93934.75;;;6.38;100.00
35888;BME280;21990;42.540;23.496;2023-02-28T02:45:43;93938.72;;;6.26;100.00
35888;BME280;21990;42.540;23.496;2023-02-28T02:48:13;93938.34;;;6.12;100.00
35888;BME280;21990;42.540;23.496;2023-02-28T02:50:45;93952.28;;;6.07;100.00
35888;BME280;21990;42.540;23.496;2023-02-28T02:53:15;93953.00;;;5.82;100.00
35888;BME280;21990;42.540;23.496;2023-02-28T02:55:45;93964.91;;;5.77;100.00
35888;BME280;21990;42.540;23.496;2023-02-28T02:58:18;93971.44;;;5.68;100.00
35888;BME280;21990;42.540;23.496;2023-02-28T03:00:50;93967.88;;;5.67;100.00
35888;BME280;21990;42.540;23.496;2023-02-28T03:03:19;93959.41;;;5.62;100.00
35888;BME280;21990;42.540;23.496;2023-02-28T03:05:55;93961.31;;;5.50;100.00
35888;BME280;21990;42.540;23.496;2023-02-28T03:08:21;93965.34;;;5.49;100.00
35888;BME280;21990;42.540;23.496;2023-02-28T03:10:51;93977.19;;;5.59;100.00
35888;BME280;21990;42.540;23.496;2023-02-28T03:21:27;93983.69;;;5.76;100.00
35888;BME280;21990;42.540;23.496;2023-02-28T03:26:26;93966.59;;;5.89;100.00
35888;BME280;21990;42.540;23.496;2023-02-28T03:29:03;93979.31;;;5.90;100.00
35888;BME280;21990;42.540;23.496;2023-02-28T03:31:39;93988.03;;;5.97;100.00
35888;BME280;21990;42.540;23.496;2023-02-28T03:34:20;93991.47;;;6.07;100.00
35888;BME280;21990;42.540;23.496;2023-02-28T03:36:51;93993.53;;;6.12;100.00
35888;BME280;21990;42.540;23.496;2023-02-28T03:39:22;93999.50;;;5.99;100.00
35888;BME280;21990;42.540;23.496;2023-02-28T03:41:54;93999.44;;;5.94;100.00
35888;BME280;21990;42.540;23.496;2023-02-28T03:44:25;94006.81;;;5.91;100.00
35888;BME280;21990;42.540;23.496;2023-02-28T03:49:34;94004.28;;;5.93;100.00
35888;BME280;21990;42.540;23.496;2023-02-28T03:52:04;94003.22;;;5.91;100.00
35888;BME280;21990;42.540;23.496;2023-02-28T03:54:35;94012.88;;;5.90;100.00
35888;BME280;21990;42.540;23.496;2023-02-28T03:57:30;94012.66;;;5.93;100.00
35888;BME280;21990;42.540;23.496;2023-02-28T03:59:57;94007.88;;;5.99;100.00
35888;BME280;21990;42.540;23.496;2023-02-28T04:02:24;93998.19;;;5.95;100.00
35888;BME280;21990;42.540;23.496;2023-02-28T04:04:50;94008.66;;;6.00;100.00
35888;BME280;21990;42.540;23.496;2023-02-28T04:07:16;93998.75;;;5.99;100.00
35888;BME280;21990;42.540;23.496;2023-02-28T04:09:43;94010.63;;;5.94;100.00
35888;BME280;21990;42.540;23.496;2023-02-28T04:12:08;94004.13;;;6.02;100.00
35888;BME280;21990;42.540;23.496;2023-02-28T04:14:34;94006.84;;;5.97;100.00
35888;BME280;21990;42.540;23.496;2023-02-28T04:17:00;94003.56;;;5.98;100.00
35888;BME280;21990;42.540;23.496;2023-02-28T04:19:25;94007.47;;;6.06;100.00
35888;BME280;21990;42.540;23.496;2023-02-28T04:21:52;94007.50;;;6.12;100.00
35888;BME280;21990;42.540;23.496;2023-02-28T04:24:23;94007.03;;;6.13;100.00
35888;BME280;21990;42.540;23.496;2023-02-28T04:26:51;94009.97;;;6.04;100.00
35888;BME280;21990;42.540;23.496;2023-02-28T04:29:20;94006.69;;;6.06;100.00
35888;BME280;21990;42.540;23.496;2023-02-28T04:31:46;94010.59;;;6.14;100.00
35888;BME280;21990;42.540;23.496;2023-02-28T04:34:11;94012.41;;;6.17;100.00
35888;BME280;21990;42.540;23.496;2023-02-28T04:36:37;94016.78;;;6.24;100.00
35888;BME280;21990;42.540;23.496;2023-02-28T04:39:03;94021.38;;;6.27;100.00
35888;BME280;21990;42.540;23.496;2023-02-28T04:41:29;94026.06;;;6.35;99.76
35888;BME280;21990;42.540;23.496;2023-02-28T04:43:55;94023.56;;;6.43;99.02
35888;BME280;21990;42.540;23.496;2023-02-28T04:46:21;94021.69;;;6.29;98.66
35888;BME280;21990;42.540;23.496;2023-02-28T04:48:47;94018.78;;;6.17;98.35
35888;BME280;21990;42.540;23.496;2023-02-28T04:51:14;94023.13;;;6.18;98.65
35888;BME280;21990;42.540;23.496;2023-02-28T04:53:41;94026.97;;;6.27;97.90
35888;BME280;21990;42.540;23.496;2023-02-28T04:56:11;94016.47;;;6.16;97.79
35888;BME280;21990;42.540;23.496;2023-02-28T04:58:37;94019.91;;;5.85;98.29
35888;BME280;21990;42.540;23.496;2023-02-28T05:01:05;94023.78;;;5.88;98.74
35888;BME280;21990;42.540;23.496;2023-02-28T05:03:40;94018.38;;;5.84;98.57
35888;BME280;21990;42.540;23.496;2023-02-28T05:06:06;94025.31;;;5.89;98.37
35888;BME280;21990;42.540;23.496;2023-02-28T05:08:33;94023.84;;;5.93;98.05
35888;BME280;21990;42.540;23.496;2023-02-28T05:10:59;94025.19;;;5.98;97.65
35888;BME280;21990;42.540;23.496;2023-02-28T05:13:26;94012.72;;;5.99;97.76
35888;BME280;21990;42.540;23.496;2023-02-28T05:15:52;94022.41;;;6.03;98.12
35888;BME280;21990;42.540;23.496;2023-02-28T05:18:17;94022.00;;;6.10;98.50
35888;BME280;21990;42.540;23.496;2023-02-28T05:20:43;94029.44;;;6.19;98.42
35888;BME280;21990;42.540;23.496;2023-02-28T05:23:11;94026.44;;;6.22;97.89
35888;BME280;21990;42.540;23.496;2023-02-28T05:25:38;94033.34;;;6.27;97.90
35888;BME280;21990;42.540;23.496;2023-02-28T05:28:04;94035.88;;;6.25;97.92
35888;BME280;21990;42.540;23.496;2023-02-28T05:30:29;94040.16;;;6.20;98.04
35888;BME280;21990;42.540;23.496;2023-02-28T05:32:57;94042.53;;;6.28;97.76
35888;BME280;21990;42.540;23.496;2023-02-28T05:35:23;94047.84;;;6.26;98.43
35888;BME280;21990;42.540;23.496;2023-02-28T05:37:48;94051.69;;;6.28;98.53
35888;BME280;21990;42.540;23.496;2023-02-28T05:40:14;94057.84;;;6.32;98.64
35888;BME280;21990;42.540;23.496;2023-02-28T05:42:40;94064.44;;;6.29;98.65
35888;BME280;21990;42.540;23.496;2023-02-28T05:45:07;94057.50;;;6.25;99.05
35888;BME280;21990;42.540;23.496;2023-02-28T05:47:32;94064.44;;;6.29;99.14
35888;BME280;21990;42.540;23.496;2023-02-28T05:49:58;94057.63;;;6.36;99.69
35888;BME280;21990;42.540;23.496;2023-02-28T05:52:23;94057.16;;;6.43;99.43
35888;BME280;21990;42.540;23.496;2023-02-28T05:54:49;94066.56;;;6.40;99.10
35888;BME280;21990;42.540;23.496;2023-02-28T05:57:15;94064.53;;;6.40;99.75
35888;BME280;21990;42.540;23.496;2023-02-28T05:59:40;94057.47;;;6.45;99.76
35888;BME280;21990;42.540;23.496;2023-02-28T06:02:09;94066.94;;;6.53;100.00
35888;BME280;21990;42.540;23.496;2023-02-28T06:04:36;94066.41;;;6.49;99.81
35888;BME280;21990;42.540;23.496;2023-02-28T06:07:01;94066.44;;;6.29;99.76
35888;BME280;21990;42.540;23.496;2023-02-28T06:09:27;94066.13;;;6.21;100.00
35888;BME280;21990;42.540;23.496;2023-02-28T06:11:52;94065.53;;;6.37;99.79
35888;BME280;21990;42.540;23.496;2023-02-28T06:14:19;94057.47;;;6.45;99.41
35888;BME280;21990;42.540;23.496;2023-02-28T06:16:45;94067.72;;;6.53;99.59
35888;BME280;21990;42.540;23.496;2023-02-28T06:19:11;94065.25;;;6.61;99.74
35888;BME280;21990;42.540;23.496;2023-02-28T06:21:36;94068.59;;;6.65;99.53
35888;BME280;21990;42.540;23.496;2023-02-28T06:24:02;94076.47;;;6.66;99.88
35888;BME280;21990;42.540;23.496;2023-02-28T06:26:28;94076.25;;;6.70;99.76
35888;BME280;21990;42.540;23.496;2023-02-28T06:28:54;94073.47;;;6.70;99.41
35888;BME280;21990;42.540;23.496;2023-02-28T06:31:20;94073.44;;;6.64;99.89
35888;BME280;21990;42.540;23.496;2023-02-28T06:33:46;94086.75;;;6.75;99.86
35888;BME280;21990;42.540;23.496;2023-02-28T06:36:14;94082.94;;;6.78;99.46
35888;BME280;21990;42.540;23.496;2023-02-28T06:38:40;94082.25;;;6.83;99.76
35888;BME280;21990;42.540;23.496;2023-02-28T06:41:06;94085.50;;;6.76;99.38
35888;BME280;21990;42.540;23.496;2023-02-28T06:43:36;94077.91;;;6.82;99.00
35888;BME280;21990;42.540;23.496;2023-02-28T06:46:05;94086.06;;;6.86;98.39
35888;BME280;21990;42.540;23.496;2023-02-28T06:48:31;94086.91;;;6.92;98.41
35888;BME280;21990;42.540;23.496;2023-02-28T06:51:09;94085.13;;;6.94;98.93
35888;BME280;21990;42.540;23.496;2023-02-28T06:53:35;94088.22;;;6.96;98.87
35888;BME280;21990;42.540;23.496;2023-02-28T06:56:13;94075.00;;;7.02;100.00
35888;BME280;21990;42.540;23.496;2023-02-28T06:58:38;94075.47;;;6.95;99.82
35888;BME280;21990;42.540;23.496;2023-02-28T07:01:07;94079.34;;;7.03;99.20
35888;BME280;21990;42.540;23.496;2023-02-28T07:03:35;94080.44;;;7.11;99.32
35888;BME280;21990;42.540;23.496;2023-02-28T07:06:01;94078.38;;;7.12;99.30
35888;BME280;21990;42.540;23.496;2023-02-28T07:08:27;94081.19;;;7.12;100.00
35888;BME280;21990;42.540;23.496;2023-02-28T07:10:55;94081.97;;;7.12;99.94
35888;BME280;21990;42.540;23.496;2023-02-28T07:13:22;94087.78;;;7.09;100.00
35888;BME280;21990;42.540;23.496;2023-02-28T07:16:02;94089.66;;;7.18;100.00
35888;BME280;21990;42.540;23.496;2023-02-28T07:18:28;94089.16;;;7.19;100.00
35888;BME280;21990;42.540;23.496;2023-02-28T07:20:53;94094.75;;;7.19;100.00
35888;BME280;21990;42.540;23.496;2023-02-28T07:23:20;94087.00;;;7.03;100.00
35888;BME280;21990;42.540;23.496;2023-02-28T07:25:45;94084.03;;;6.86;100.00
35888;BME280;21990;42.540;23.496;2023-02-28T07:28:12;94086.75;;;6.75;100.00
35888;BME280;21990;42.540;23.496;2023-02-28T07:30:38;94094.13;;;6.73;100.00
35888;BME280;21990;42.540;23.496;2023-02-28T07:33:03;94096.41;;;6.74;100.00
35888;BME280;21990;42.540;23.496;2023-02-28T07:35:30;94092.84;;;6.74;100.00
35888;BME280;21990;42.540;23.496;2023-02-28T07:37:58;94095.16;;;6.75;100.00
35888;BME280;21990;42.540;23.496;2023-02-28T07:40:24;94096.78;;;6.87;100.00
35888;BME280;21990;42.540;23.496;2023-02-28T07:42:50;94095.75;;;6.85;100.00
35888;BME280;21990;42.540;23.496;2023-02-28T07:45:15;94104.19;;;6.90;100.00
35888;BME280;21990;42.540;23.496;2023-02-28T07:47:42;94104.16;;;6.85;100.00
35888;BME280;21990;42.540;23.496;2023-02-28T07:50:10;94095.53;;;6.88;100.00
35888;BME280;21990;42.540;23.496;2023-02-28T07:52:37;94095.84;;;6.96;100.00
35888;BME280;21990;42.540;23.496;2023-02-28T07:55:04;94095.88;;;7.01;100.00
35888;BME280;21990;42.540;23.496;2023-02-28T07:57:30;94096.13;;;6.98;100.00
35888;BME280;21990;42.540;23.496;2023-02-28T07:59:55;94104.25;;;6.96;100.00
35888;BME280;21990;42.540;23.496;2023-02-28T08:02:21;94102.50;;;6.98;100.00
35888;BME280;21990;42.540;23.496;2023-02-28T08:04:46;94097.13;;;7.00;100.00
35888;BME280;21990;42.540;23.496;2023-02-28T08:07:13;94097.13;;;7.00;100.00
35888;BME280;21990;42.540;23.496;2023-02-28T08:09:40;94099.28;;;7.11;100.00
35888;BME280;21990;42.540;23.496;2023-02-28T08:12:06;94106.47;;;7.18;100.00
35888;BME280;21990;42.540;23.496;2023-02-28T08:14:32;94102.41;;;7.19;100.00
35888;BME280;21990;42.540;23.496;2023-02-28T08:16:58;94102.88;;;7.17;100.00
35888;BME280;21990;42.540;23.496;2023-02-28T08:19:24;94099.84;;;7.21;100.00
35888;BME280;21990;42.540;23.496;2023-02-28T08:21:49;94101.13;;;7.20;100.00
35888;BME280;21990;42.540;23.496;2023-02-28T08:24:14;94100.69;;;7.27;100.00
35888;BME280;21990;42.540;23.496;2023-02-28T08:26:40;94098.38;;;7.25;100.00
35888;BME280;21990;42.540;23.496;2023-02-28T08:29:05;94089.69;;;7.23;100.00
35888;BME280;21990;42.540;23.496;2023-02-28T08:31:31;94095.31;;;7.29;100.00
35888;BME280;21990;42.540;23.496;2023-02-28T08:33:59;94104.50;;;7.29;100.00
35888;BME280;21990;42.540;23.496;2023-02-28T08:36:25;94100.22;;;7.34;100.00
35888;BME280;21990;42.540;23.496;2023-02-28T08:38:53;94107.38;;;7.35;100.00
35888;BME280;21990;42.540;23.496;2023-02-28T08:41:19;94101.78;;;7.40;100.00
35888;BME280;21990;42.540;23.496;2023-02-28T08:43:44;94100.78;;;7.43;100.00
35888;BME280;21990;42.540;23.496;2023-02-28T08:46:13;94099.25;;;7.42;100.00
35888;BME280;21990;42.540;23.496;2023-02-28T08:48:39;94102.00;;;7.37;100.00
35888;BME280;21990;42.540;23.496;2023-02-28T08:51:08;94104.88;;;7.42;100.00
35888;BME280;21990;42.540;23.496;2023-02-28T08:53:38;94100.75;;;7.38;100.00
35888;BME280;21990;42.540;23.496;2023-02-28T08:56:05;94099.59;;;7.55;100.00
35888;BME280;21990;42.540;23.496;2023-02-28T08:58:32;94098.81;;;7.55;100.00
35888;BME280;21990;42.540;23.496;2023-02-28T09:00:58;94100.63;;;7.58;100.00
35888;BME280;21990;42.540;23.496;2023-02-28T09:03:24;94099.88;;;7.63;100.00
35888;BME280;21990;42.540;23.496;2023-02-28T09:05:58;94098.56;;;7.53;100.00
35888;BME280;21990;42.540;23.496;2023-02-28T09:08:25;94101.16;;;7.62;100.00
35888;BME280;21990;42.540;23.496;2023-02-28T09:10:51;94093.00;;;7.64;100.00
35888;BME280;21990;42.540;23.496;2023-02-28T09:13:18;94091.75;;;7.71;100.00
35888;BME280;21990;42.540;23.496;2023-02-28T09:15:44;94097.88;;;7.69;100.00
35888;BME280;21990;42.540;23.496;2023-02-28T09:18:10;94098.66;;;7.70;100.00
35888;BME280;21990;42.540;23.496;2023-02-28T09:20:40;94104.34;;;7.81;100.00
35888;BME280;21990;42.540;23.496;2023-02-28T09:23:07;94093.09;;;7.81;100.00
35888;BME280;21990;42.540;23.496;2023-02-28T09:25:33;94100.56;;;7.95;100.00
35888;BME280;21990;42.540;23.496;2023-02-28T09:27:58;94097.78;;;8.00;100.00
35888;BME280;21990;42.540;23.496;2023-02-28T09:30:24;94099.78;;;7.94;100.00
35888;BME280;21990;42.540;23.496;2023-02-28T09:32:49;94104.19;;;8.01;100.00
35888;BME280;21990;42.540;23.496;2023-02-28T09:35:23;94103.63;;;7.91;100.00
35888;BME280;21990;42.540;23.496;2023-02-28T09:37:50;94099.56;;;7.98;100.00
35888;BME280;21990;42.540;23.496;2023-02-28T09:40:22;94093.94;;;7.92;100.00
35888;BME280;21990;42.540;23.496;2023-02-28T09:42:51;94099.06;;;7.99;100.00
35888;BME280;21990;42.540;23.496;2023-02-28T09:45:33;94099.06;;;7.99;100.00
35888;BME280;21990;42.540;23.496;2023-02-28T09:48:37;94099.38;;;8.18;100.00
35888;BME280;21990;42.540;23.496;2023-02-28T09:51:12;94103.25;;;8.26;100.00
35888;BME280;21990;42.540;23.496;2023-02-28T09:53:40;94106.91;;;8.38;100.00
35888;BME280;21990;42.540;23.496;2023-02-28T09:56:13;94100.22;;;8.30;100.00
35888;BME280;21990;42.540;23.496;2023-02-28T09:58:51;94099.72;;;8.37;100.00
35888;BME280;21990;42.540;23.496;2023-02-28T10:01:28;94097.97;;;8.39;100.00
35888;BME280;21990;42.540;23.496;2023-02-28T10:04:00;94097.44;;;8.35;100.00
35888;BME280;21990;42.540;23.496;2023-02-28T10:06:32;94087.94;;;8.27;100.00
35888;BME280;21990;42.540;23.496;2023-02-28T10:09:02;94083.88;;;8.28;100.00
35888;BME280;21990;42.540;23.496;2023-02-28T10:11:29;94083.13;;;8.33;100.00
35888;BME280;21990;42.540;23.496;2023-02-28T10:14:26;94079.88;;;8.40;100.00
35888;BME280;21990;42.540;23.496;2023-02-28T10:17:03;94081.09;;;8.34;100.00
35888;BME280;21990;42.540;23.496;2023-02-28T10:19:34;94083.09;;;8.28;100.00
35888;BME280;21990;42.540;23.496;2023-02-28T10:22:20;94081.56;;;8.27;100.00
35888;BME280;21990;42.540;23.496;2023-02-28T10:24:52;94082.13;;;8.31;100.00
35888;BME280;21990;42.540;23.496;2023-02-28T10:27:20;94076.81;;;8.44;100.00
35888;BME280;21990;42.540;23.496;2023-02-28T10:29:49;94068.91;;;8.53;100.00
35888;BME280;21990;42.540;23.496;2023-02-28T10:32:18;94070.44;;;8.60;100.00
35888;BME280;21990;42.540;23.496;2023-02-28T10:34:43;94066.09;;;8.59;100.00
35888;BME280;21990;42.540;23.496;2023-02-28T10:37:11;94062.53;;;8.64;100.00
35888;BME280;21990;42.540;23.496;2023-02-28T10:39:44;94063.78;;;8.57;100.00
35888;BME280;21990;42.540;23.496;2023-02-28T10:42:41;94057.19;;;8.66;100.00
35888;BME280;21990;42.540;23.496;2023-02-28T10:45:12;94060.22;;;8.68;100.00
35888;BME280;21990;42.540;23.496;2023-02-28T10:48:01;94047.97;;;8.54;100.00
35888;BME280;21990;42.540;23.496;2023-02-28T10:50:31;94050.03;;;8.60;100.00
35888;BME280;21990;42.540;23.496;2023-02-28T10:53:15;94046.97;;;8.63;100.00
35888;BME280;21990;42.540;23.496;2023-02-28T10:55:41;94052.56;;;8.57;100.00
35888;BME280;21990;42.540;23.496;2023-02-28T10:58:23;94046.69;;;8.50;100.00
35888;BME280;21990;42.540;23.496;2023-02-28T11:00:50;94041.81;;;8.56;100.00
35888;BME280;21990;42.540;23.496;2023-02-28T11:03:27;94047.69;;;8.47;100.00
35888;BME280;21990;42.540;23.496;2023-02-28T11:05:54;94042.59;;;8.45;100.00
35888;BME280;21990;42.540;23.496;2023-02-28T11:08:20;94036.44;;;8.41;100.00
35888;BME280;21990;42.540;23.496;2023-02-28T11:10:47;94032.13;;;8.40;100.00
35888;BME280;21990;42.540;23.496;2023-02-28T11:13:19;94033.66;;;8.52;100.00
35888;BME280;21990;42.540;23.496;2023-02-28T11:15:53;94029.59;;;8.48;100.00
35888;BME280;21990;42.540;23.496;2023-02-28T11:18:24;94028.28;;;8.43;100.00
35888;BME280;21990;42.540;23.496;2023-02-28T11:20:54;94026.72;;;8.31;100.00
35888;BME280;21990;42.540;23.496;2023-02-28T11:23:25;94022.84;;;8.23;100.00
35888;BME280;21990;42.540;23.496;2023-02-28T11:25:55;94033.63;;;8.30;100.00
35888;BME280;21990;42.540;23.496;2023-02-28T11:28:30;94024.13;;;8.22;100.00
35888;BME280;21990;42.540;23.496;2023-02-28T11:33:53;94019.31;;;8.28;100.00
35888;BME280;21990;42.540;23.496;2023-02-28T11:36:22;94027.19;;;8.19;100.00
35888;BME280;21990;42.540;23.496;2023-02-28T11:38:54;94019.28;;;8.23;100.00
35888;BME280;21990;42.540;23.496;2023-02-28T11:44:04;94028.53;;;8.40;100.00
35888;BME280;21990;42.540;23.496;2023-02-28T11:46:41;94026.47;;;8.35;100.00
35888;BME280;21990;42.540;23.496;2023-02-28T11:49:32;94018.31;;;8.31;100.00
35888;BME280;21990;42.540;23.496;2023-02-28T11:54:35;94014.94;;;8.16;100.00
35888;BME280;21990;42.540;23.496;2023-02-28T12:00:29;94024.38;;;8.19;100.00
35888;BME280;21990;42.540;23.496;2023-02-28T12:17:46;94013.38;;;8.09;100.00
35888;BME280;21990;42.540;23.496;2023-02-28T12:20:37;94013.88;;;8.08;100.00
35888;BME280;21990;42.540;23.496;2023-02-28T12:25:52;94005.72;;;8.10;100.00
35888;BME280;21990;42.540;23.496;2023-02-28T12:28:26;94006.75;;;8.18;100.00
35888;BME280;21990;42.540;23.496;2023-02-28T12:33:38;94006.25;;;8.08;100.00
35888;BME280;21990;42.540;23.496;2023-02-28T12:36:11;94000.38;;;8.12;100.00
35888;BME280;21990;42.540;23.496;2023-02-28T12:44:32;93984.56;;;8.15;100.00
35888;BME280;21990;42.540;23.496;2023-02-28T12:47:02;93996.28;;;8.07;100.00
35888;BME280;21990;42.540;23.496;2023-02-28T12:49:38;93988.63;;;8.13;100.00
35888;BME280;21990;42.540;23.496;2023-02-28T12:52:04;93999.59;;;8.17;100.00
35888;BME280;21990;42.540;23.496;2023-02-28T12:54:52;93993.81;;;8.32;100.00
35888;BME280;21990;42.540;23.496;2023-02-28T13:00:33;93995.28;;;8.16;100.00
35888;BME280;21990;42.540;23.496;2023-02-28T13:03:19;93990.94;;;8.15;100.00
35888;BME280;21990;42.540;23.496;2023-02-28T13:11:31;93989.91;;;8.18;100.00
35888;BME280;21990;42.540;23.496;2023-02-28T13:14:20;93989.19;;;8.29;100.00
35888;BME280;21990;42.540;23.496;2023-02-28T13:16:55;93979.72;;;8.26;100.00
35888;BME280;21990;42.540;23.496;2023-02-28T13:19:27;93979.50;;;8.30;100.00
35888;BME280;21990;42.540;23.496;2023-02-28T13:21:55;93981.75;;;8.26;100.00
35888;BME280;21990;42.540;23.496;2023-02-28T13:29:39;93989.94;;;8.24;100.00
35888;BME280;21990;42.540;23.496;2023-02-28T13:34:32;93984.84;;;8.28;100.00
35888;BME280;21990;42.540;23.496;2023-02-28T13:39:57;93976.91;;;8.26;100.00
35888;BME280;21990;42.540;23.496;2023-02-28T13:47:35;93973.06;;;8.18;100.00
35888;BME280;21990;42.540;23.496;2023-02-28T13:50:37;93972.31;;;8.23;100.00
35888;BME280;21990;42.540;23.496;2023-02-28T13:56:00;93966.94;;;8.14;100.00
35888;BME280;21990;42.540;23.496;2023-02-28T13:58:46;93975.59;;;8.10;100.00
35888;BME280;21990;42.540;23.496;2023-02-28T14:08:47;93983.25;;;8.04;100.00
35888;BME280;21990;42.540;23.496;2023-02-28T14:11:32;93976.09;;;8.03;100.00
35888;BME280;21990;42.540;23.496;2023-02-28T14:13:59;93979.91;;;7.95;100.00
35888;BME280;21990;42.540;23.496;2023-02-28T14:16:28;93988.31;;;7.95;100.00
35888;BME280;21990;42.540;23.496;2023-02-28T14:19:14;93977.56;;;7.82;100.00
35888;BME280;21990;42.540;23.496;2023-02-28T14:36:01;93994.41;;;7.77;100.00
35888;BME280;21990;42.540;23.496;2023-02-28T14:39:01;93990.56;;;7.74;100.00
35888;BME280;21990;42.540;23.496;2023-02-28T14:41:32;93985.97;;;7.82;100.00
35888;BME280;21990;42.540;23.496;2023-02-28T14:44:16;93988.22;;;7.67;100.00
35888;BME280;21990;42.540;23.496;2023-02-28T14:46:44;93992.56;;;7.68;100.00
35888;BME280;21990;42.540;23.496;2023-02-28T14:49:30;93984.88;;;7.63;100.00
35888;BME280;21990;42.540;23.496;2023-02-28T14:52:09;93986.97;;;7.62;100.00
35888;BME280;21990;42.540;23.496;2023-02-28T14:54:38;93991.50;;;7.60;100.00
35888;BME280;21990;42.540;23.496;2023-02-28T14:57:05;93991.97;;;7.47;100.00
35888;BME280;21990;42.540;23.496;2023-02-28T14:59:34;93983.59;;;7.53;100.00
35888;BME280;21990;42.540;23.496;2023-02-28T15:02:22;93982.31;;;7.54;100.00
35888;BME280;21990;42.540;23.496;2023-02-28T15:04:59;93981.75;;;7.44;100.00